createdAt,value
2023-03-14T01:44:50.664Z,1477.00
2023-03-14T01:45:50.733Z,1478.00
2023-03-14T01:46:50.756Z,1477.00
2023-03-14T01:47:50.813Z,1472.00
2023-03-14T01:48:50.857Z,1470.00
2023-03-14T01:49:50.913Z,1470.00
2023-03-14T01:50:50.967Z,1474.00
2023-03-14T01:51:51.104Z,1477.00
2023-03-14T01:52:51.085Z,1478.00
2023-03-14T01:53:51.194Z,1475.00
2023-03-14T01:54:51.190Z,1476.00
2023-03-14T01:55:51.216Z,1476.00
2023-03-14T01:56:51.245Z,1477.00
2023-03-14T01:57:51.262Z,1475.00
2023-03-14T01:58:51.295Z,1478.00
2023-03-14T01:59:51.321Z,1477.00
2023-03-14T02:00:51.370Z,1474.00
2023-03-14T02:01:51.367Z,1472.00
2023-03-14T02:02:51.396Z,1468.00
2023-03-14T02:03:51.467Z,1468.00
2023-03-14T02:04:51.499Z,1466.00
2023-03-14T02:05:51.520Z,1463.00
2023-03-14T02:06:51.633Z,1460.00
2023-03-14T02:07:51.634Z,1459.00
2023-03-14T02:08:51.728Z,1459.00
2023-03-14T02:09:51.701Z,1458.00
2023-03-14T02:10:51.749Z,1458.00
2023-03-14T02:11:51.794Z,1456.00
2023-03-14T02:12:51.861Z,1457.00
2023-03-14T02:13:51.873Z,1461.00
2023-03-14T02:14:51.920Z,1461.00
2023-03-14T02:15:51.974Z,1462.00
2023-03-14T02:16:52.824Z,1462.00
2023-03-14T02:17:52.091Z,1462.00
2023-03-14T02:18:52.169Z,1460.00
2023-03-14T02:19:52.217Z,1460.00
2023-03-14T02:20:52.261Z,1455.00
2023-03-14T02:21:52.293Z,1453.00
2023-03-14T02:22:52.326Z,1450.00
2023-03-14T02:23:52.365Z,1450.00
2023-03-14T02:24:52.826Z,1450.00
2023-03-14T02:25:52.460Z,1446.00
2023-03-14T02:26:52.501Z,1447.00
2023-03-14T02:27:52.564Z,1450.00
2023-03-14T02:28:52.613Z,1449.00
2023-03-14T02:29:52.681Z,1449.00
2023-03-14T02:30:52.779Z,1448.00
2023-03-14T02:31:52.827Z,1448.00
2023-03-14T02:32:52.966Z,1444.00
2023-03-14T02:33:52.894Z,1440.00
2023-03-14T02:34:52.996Z,1442.00
2023-03-14T02:35:53.031Z,1445.00
2023-03-14T02:36:53.043Z,1442.00
2023-03-14T02:37:53.125Z,1443.00
2023-03-14T02:38:54.986Z,1441.00
2023-03-14T02:39:53.266Z,1439.00
2023-03-14T02:40:53.364Z,1436.00
2023-03-14T02:41:53.355Z,1435.00
2023-03-14T02:42:53.408Z,1431.00
2023-03-14T06:06:00.910Z,1281.00
2023-03-14T06:19:00.621Z,1275.00
2023-03-14T06:20:00.649Z,1272.00
2023-03-14T06:21:00.681Z,1271.00
2023-03-14T06:22:00.701Z,1272.00
2023-03-14T06:23:00.772Z,1283.00
2023-03-14T06:24:00.775Z,1289.00
2023-03-14T06:25:00.808Z,1292.00
2023-03-14T06:26:00.882Z,1314.00
2023-03-14T06:27:00.874Z,1339.00
2023-03-14T06:28:00.897Z,1391.00
2023-03-14T06:29:00.931Z,1395.00
2023-03-14T06:30:01.209Z,1479.00
2023-03-14T06:31:01.101Z,1498.00
2023-03-14T06:32:00.995Z,1560.00
2023-03-14T06:33:01.095Z,1659.00
2023-03-14T06:34:01.011Z,1673.00
2023-03-14T06:35:01.011Z,1693.00
2023-03-14T06:36:01.071Z,1725.00
2023-03-14T06:37:00.988Z,1756.00
2023-03-14T06:38:00.961Z,1777.00
2023-03-14T06:39:00.943Z,1847.00
2023-03-14T06:40:00.924Z,1863.00
2023-03-14T06:41:00.912Z,1885.00
2023-03-14T06:42:00.888Z,1920.00
2023-03-14T06:43:00.846Z,1933.00
2023-03-14T06:44:00.833Z,2018.00
2023-03-14T06:45:01.922Z,2036.00
2023-03-14T06:46:00.929Z,2058.00
2023-03-14T06:47:00.842Z,2105.00
2023-03-14T06:48:00.861Z,2144.00
2023-03-14T06:49:00.854Z,2185.00
2023-03-14T06:50:00.882Z,2216.00
2023-03-14T06:51:00.928Z,2250.00
2023-03-14T06:52:00.950Z,2290.00
2023-03-14T06:53:01.113Z,2361.00
2023-03-14T06:54:01.035Z,2374.00
2023-03-14T06:55:01.054Z,2382.00
2023-03-14T06:56:01.106Z,2416.00
2023-03-14T06:57:01.107Z,2441.00
2023-03-14T06:58:01.937Z,2517.00
2023-03-14T06:59:01.160Z,2549.00
2023-03-14T07:00:01.184Z,2550.00
2023-03-14T07:01:01.264Z,2569.00
2023-03-14T07:02:01.239Z,2607.00
2023-03-14T07:03:01.254Z,2642.00
2023-03-14T07:04:01.340Z,2684.00
2023-03-14T07:05:01.303Z,2702.00
2023-03-14T07:06:01.325Z,2725.00
2023-03-14T07:07:01.351Z,2747.00
2023-03-14T07:08:01.364Z,2778.00
2023-03-14T07:09:03.030Z,2850.00
2023-03-14T07:10:01.356Z,2877.00
2023-03-14T07:11:01.304Z,2923.00
2023-03-14T07:13:01.230Z,2978.00
2023-03-14T07:14:01.264Z,3007.00
2023-03-14T07:15:17.064Z,3027.00
2023-03-14T07:16:02.166Z,3057.00
2023-03-14T07:18:01.070Z,3157.00
2023-03-14T07:23:00.889Z,3232.00
2023-03-14T07:24:00.846Z,3234.00
2023-03-14T07:25:00.813Z,3230.00
2023-03-14T07:26:00.800Z,3220.00
2023-03-14T07:27:00.858Z,3217.00
2023-03-14T07:28:00.872Z,3204.00
2023-03-14T07:31:01.044Z,3170.00
2023-03-14T07:32:00.978Z,3166.00
2023-03-14T07:33:01.056Z,3161.00
2023-03-14T07:34:01.048Z,3152.00
2023-03-14T07:35:01.084Z,3151.00
2023-03-14T07:36:01.149Z,3145.00
2023-03-14T07:37:01.143Z,3141.00
2023-03-14T07:38:01.176Z,3134.00
2023-03-14T07:39:01.189Z,3130.00
2023-03-14T07:42:01.159Z,3124.00
2023-03-14T07:43:01.190Z,3123.00
2023-03-14T07:44:01.194Z,3121.00
2023-03-14T07:45:01.178Z,3115.00
2023-03-14T07:46:01.169Z,3114.00
2023-03-14T07:47:02.515Z,3109.00
2023-03-14T07:48:01.118Z,3111.00
2023-03-14T07:49:01.102Z,3105.00
2023-03-14T07:50:01.090Z,3100.00
2023-03-14T07:51:01.067Z,3097.00
2023-03-14T07:52:01.053Z,3093.00
2023-03-14T07:53:01.033Z,3092.00
2023-03-14T07:55:00.996Z,3087.00
2023-03-14T07:59:00.970Z,3072.00
2023-03-14T08:00:01.477Z,3068.00
2023-03-14T08:01:00.971Z,3069.00
2023-03-14T08:03:01.059Z,3061.00
2023-03-14T08:04:00.974Z,3053.00
2023-03-14T08:05:00.948Z,3048.00
2023-03-14T08:06:00.943Z,3047.00
2023-03-14T08:07:00.933Z,3043.00
2023-03-14T08:08:00.931Z,3038.00
2023-03-14T08:09:00.991Z,3037.00
2023-03-14T08:10:00.909Z,3039.00
2023-03-14T08:11:01.890Z,3045.00
2023-03-14T08:12:00.906Z,3041.00
2023-03-14T08:13:00.885Z,3034.00
2023-03-14T08:14:00.882Z,3027.00
2023-03-14T08:15:01.116Z,3023.00
2023-03-14T08:16:00.911Z,3020.00
2023-03-14T08:20:00.823Z,2996.00
2023-03-14T08:21:00.827Z,2993.00
2023-03-14T08:22:00.825Z,2986.00
2023-03-14T08:23:00.807Z,2982.00
2023-03-14T08:24:00.811Z,2978.00
2023-03-14T08:25:00.792Z,2980.00
2023-03-14T08:26:00.805Z,2977.00
2023-03-14T08:27:00.802Z,2975.00
2023-03-14T08:28:00.803Z,2974.00
2023-03-14T08:29:00.803Z,2969.00
2023-03-14T08:30:01.126Z,2967.00
2023-03-14T08:31:00.862Z,2965.00
2023-03-14T08:32:00.800Z,2959.00
2023-03-14T08:33:00.887Z,2955.00
2023-03-14T08:34:00.706Z,2944.00
2023-03-14T08:35:00.664Z,2940.00
2023-03-14T08:36:00.703Z,2932.00
2023-03-14T08:37:00.851Z,2923.00
2023-03-14T08:51:01.522Z,2870.00
2023-03-14T09:38:00.698Z,3017.00
2023-03-14T09:39:00.744Z,3054.00
2023-03-14T09:40:00.697Z,3085.00
2023-03-14T09:41:00.737Z,3107.00
2023-03-14T09:42:00.751Z,3179.00
2023-03-14T09:43:00.772Z,3202.00
2023-03-14T09:44:00.799Z,3215.00
2023-03-14T09:47:00.841Z,3312.00
2023-03-14T09:48:00.856Z,3345.00
2023-03-14T09:49:00.868Z,3371.00
2023-03-14T09:50:00.916Z,3412.00
2023-03-14T09:51:00.859Z,3441.00
2023-03-14T09:53:00.852Z,3545.00
2023-03-14T09:54:00.862Z,3559.00
2023-03-14T09:55:00.873Z,3580.00
2023-03-14T09:56:00.862Z,3607.00
2023-03-14T09:57:00.867Z,3647.00
2023-03-14T09:58:01.495Z,3664.00
2023-03-14T09:59:00.861Z,3703.00
2023-03-14T10:00:01.126Z,3725.00
2023-03-14T10:01:01.998Z,3770.00
2023-03-14T10:02:01.926Z,3801.00
2023-03-14T10:03:01.028Z,3833.00
2023-03-14T10:04:01.058Z,3850.00
2023-03-14T10:05:06.778Z,3881.00
2023-03-14T10:07:02.599Z,3970.00
2023-03-14T10:08:00.850Z,4005.00
2023-03-14T10:09:00.802Z,4025.00
2023-03-14T10:10:00.783Z,4065.00
2023-03-14T10:11:00.734Z,4091.00
2023-03-14T10:12:00.658Z,4145.00
2023-03-14T10:13:00.631Z,4177.00
2023-03-14T10:23:00.995Z,2375.00
2023-03-14T13:00:58.344Z,3688.00
2023-03-14T13:01:58.338Z,3690.00
2023-03-14T13:07:58.421Z,3676.00
2023-03-14T13:08:58.406Z,3672.00
2023-03-14T13:09:58.423Z,3672.00
2023-03-14T13:10:58.435Z,3667.00
2023-03-14T13:11:59.003Z,3665.00
2023-03-14T13:12:58.484Z,3657.00
2023-03-14T13:13:58.519Z,3658.00
2023-03-14T13:15:58.558Z,3655.00
2023-03-14T13:56:00.674Z,3521.00
2023-03-14T14:13:00.609Z,3473.00
2023-03-14T14:26:00.904Z,3412.00
2023-03-14T14:27:00.646Z,3410.00
2023-03-14T14:28:00.658Z,3407.00
2023-03-14T14:29:00.683Z,3407.00
2023-03-14T14:30:01.146Z,3406.00
2023-03-14T14:31:00.816Z,3402.00
2023-03-14T14:32:00.780Z,3398.00
2023-03-14T14:34:00.848Z,3389.00
2023-03-14T14:35:00.880Z,3390.00
2023-03-14T14:36:00.950Z,3387.00
2023-03-14T14:37:00.954Z,3383.00
2023-03-14T14:38:00.989Z,3388.00
2023-03-14T14:39:01.028Z,3388.00
2023-03-14T14:40:01.094Z,3389.00
2023-03-14T14:41:01.121Z,3387.00
2023-03-14T14:42:01.141Z,3384.00
2023-03-14T14:43:01.178Z,3385.00
2023-03-14T14:44:01.289Z,3381.00
2023-03-14T14:45:01.285Z,3376.00
2023-03-14T14:46:01.360Z,3371.00
2023-03-14T14:47:01.350Z,3365.00
2023-03-14T14:49:01.419Z,3351.00
2023-03-14T14:50:01.404Z,3343.00
2023-03-14T14:51:01.429Z,3339.00
2023-03-14T14:52:01.465Z,3345.00
2023-03-14T14:53:01.493Z,3347.00
2023-03-14T14:54:01.525Z,3342.00
2023-03-14T14:55:01.564Z,3344.00
2023-03-14T14:56:01.602Z,3344.00
2023-03-14T14:57:01.642Z,3341.00
2023-03-14T14:58:01.683Z,3337.00
2023-03-14T14:59:01.797Z,3334.00
2023-03-14T15:00:01.713Z,3333.00
2023-03-14T15:01:01.740Z,3332.00
2023-03-14T15:02:02.780Z,3327.00
2023-03-14T15:03:01.720Z,3330.00
2023-03-14T15:04:01.649Z,3322.00
2023-03-14T15:05:01.659Z,3319.00
2023-03-14T15:06:01.604Z,3321.00
2023-03-14T15:07:01.573Z,3317.00
2023-03-14T15:08:01.536Z,3314.00
2023-03-14T15:09:01.494Z,3310.00
2023-03-14T15:10:02.121Z,3312.00
2023-03-14T15:11:01.574Z,3309.00
2023-03-14T15:12:01.539Z,3305.00
2023-03-14T15:13:01.567Z,3298.00
2023-03-14T15:14:01.620Z,3300.00
2023-03-14T15:15:01.665Z,3296.00
2023-03-14T15:16:01.747Z,3293.00
2023-03-14T15:17:01.726Z,3284.00
2023-03-14T15:18:01.772Z,3281.00
2023-03-14T15:19:03.270Z,3278.00
2023-03-14T15:20:02.692Z,3279.00
2023-03-14T15:21:02.596Z,3282.00
2023-03-14T15:22:01.717Z,3285.00
2023-03-14T15:23:01.692Z,3277.00
2023-03-14T15:24:01.661Z,3276.00
2023-03-14T15:25:01.658Z,3269.00
2023-03-14T15:26:01.671Z,3269.00
2023-03-14T15:27:01.571Z,3272.00
2023-03-14T15:28:01.540Z,3272.00
2023-03-14T15:29:01.492Z,3271.00
2023-03-14T15:30:01.510Z,3268.00
2023-03-14T15:31:01.493Z,3260.00
2023-03-14T15:32:01.562Z,3255.00
2023-03-14T15:33:01.664Z,3252.00
2023-03-14T15:34:01.611Z,3249.00
2023-03-14T15:35:01.663Z,3242.00
2023-03-14T15:36:01.727Z,3238.00
2023-03-14T15:37:01.726Z,3234.00
2023-03-14T15:38:01.769Z,3229.00
2023-03-14T15:39:02.158Z,3223.00
2023-03-14T15:40:01.868Z,3214.00
2023-03-14T15:41:02.640Z,3210.00
2023-03-14T15:42:01.911Z,3210.00
2023-03-14T15:43:01.950Z,3209.00
2023-03-14T15:44:01.994Z,3208.00
2023-03-14T15:45:02.024Z,3209.00
2023-03-14T15:46:02.185Z,3208.00
2023-03-14T15:47:02.139Z,3207.00
2023-03-14T15:48:02.153Z,3205.00
2023-03-14T15:49:02.186Z,3197.00
2023-03-14T15:50:02.280Z,3192.00
2023-03-14T15:51:02.183Z,3187.00
2023-03-14T15:52:02.193Z,3187.00
2023-03-14T15:53:02.174Z,3185.00
2023-03-14T15:54:02.204Z,3186.00
2023-03-14T15:55:02.176Z,3185.00
2023-03-14T15:56:02.183Z,3181.00
2023-03-14T15:57:02.181Z,3175.00
2023-03-14T15:58:02.233Z,3173.00
2023-03-14T15:59:02.159Z,3170.00
2023-03-14T16:00:02.277Z,3164.00
2023-03-14T16:01:02.216Z,3154.00
2023-03-14T16:02:02.265Z,3154.00
2023-03-14T16:03:02.639Z,3150.00
2023-03-14T16:04:02.088Z,3147.00
2023-03-14T16:05:02.164Z,3144.00
2023-03-14T16:06:02.112Z,3141.00
2023-03-14T16:07:02.124Z,3134.00
2023-03-14T16:08:02.100Z,3130.00
2023-03-14T16:09:02.661Z,3127.00
2023-03-14T16:10:02.052Z,3127.00
2023-03-14T16:11:02.045Z,3124.00
2023-03-14T16:12:02.017Z,3123.00
2023-03-14T16:13:01.986Z,3121.00
2023-03-14T16:14:01.979Z,3117.00
2023-03-14T16:15:01.944Z,3110.00
2023-03-14T16:16:02.907Z,3106.00
2023-03-14T16:17:01.987Z,3107.00
2023-03-14T16:18:06.504Z,3105.00
2023-03-14T16:19:02.887Z,3103.00
2023-03-14T16:20:01.851Z,3102.00
2023-03-14T16:21:01.808Z,3098.00
2023-03-14T16:22:01.789Z,3096.00
2023-03-14T16:23:01.763Z,3089.00
2023-03-14T16:24:01.758Z,3086.00
2023-03-14T16:25:01.730Z,3080.00
2023-03-14T16:26:01.693Z,3074.00
2023-03-14T16:27:01.667Z,3072.00
2023-03-14T16:28:10.607Z,3062.00
2023-03-14T16:29:02.619Z,3063.00
2023-03-14T16:30:01.600Z,3062.00
2023-03-14T16:31:01.571Z,3055.00
2023-03-14T16:32:01.573Z,3050.00
2023-03-14T16:33:01.599Z,3049.00
2023-03-14T16:34:01.489Z,3045.00
2023-03-14T16:35:01.463Z,3045.00
2023-03-14T16:36:01.569Z,3048.00
2023-03-14T16:37:01.408Z,3039.00
2023-03-14T16:38:01.381Z,3029.00
2023-03-14T16:39:01.357Z,3030.00
2023-03-14T16:40:12.046Z,3026.00
2023-03-14T16:41:02.323Z,3022.00
2023-03-14T16:42:01.289Z,3008.00
2023-03-14T16:43:15.348Z,3005.00
2023-03-14T16:44:02.236Z,3000.00
2023-03-14T16:45:01.212Z,2995.00
2023-03-14T16:46:01.259Z,2990.00
2023-03-14T16:47:01.169Z,2987.00
2023-03-14T16:48:01.161Z,2987.00
2023-03-14T16:49:01.120Z,2989.00
2023-03-14T16:50:01.704Z,2990.00
2023-03-14T16:51:01.094Z,2992.00
2023-03-14T16:52:01.077Z,2981.00
2023-03-14T16:53:01.052Z,2984.00
2023-03-14T16:54:01.021Z,2980.00
2023-03-14T16:55:01.041Z,2971.00
2023-03-14T16:56:00.999Z,2966.00
2023-03-14T16:57:00.994Z,2960.00
2023-03-14T16:58:00.969Z,2954.00
2023-03-14T16:59:00.948Z,2946.00
2023-03-14T17:00:01.250Z,2943.00
2023-03-14T17:01:00.989Z,2938.00
2023-03-14T17:02:00.907Z,2940.00
2023-03-14T17:03:00.887Z,2934.00
2023-03-14T17:04:00.931Z,2927.00
2023-03-14T17:05:00.869Z,2921.00
2023-03-14T17:06:00.863Z,2923.00
2023-03-14T17:07:00.863Z,2922.00
2023-03-14T17:08:00.818Z,2919.00
2023-03-14T17:09:00.803Z,2911.00
2023-03-14T17:10:00.784Z,2911.00
2023-03-14T17:11:00.773Z,2915.00
2023-03-14T17:12:00.758Z,2912.00
2023-03-14T17:13:00.748Z,2915.00
2023-03-14T17:14:00.747Z,2909.00
2023-03-14T17:15:00.875Z,2902.00
2023-03-14T17:16:00.887Z,2898.00
2023-03-14T17:17:00.739Z,2900.00
2023-03-14T17:18:00.760Z,2898.00
2023-03-14T17:19:00.754Z,2897.00
2023-03-14T17:20:00.774Z,2891.00
2023-03-14T17:21:00.796Z,2888.00
2023-03-14T17:22:21.254Z,2889.00
2023-03-14T17:23:01.755Z,2894.00
2023-03-14T17:24:00.732Z,2897.00
2023-03-14T17:25:00.711Z,2900.00
2023-03-14T17:26:00.695Z,2907.00
2023-03-14T17:27:00.667Z,2906.00
2023-03-14T17:28:01.246Z,2908.00
2023-03-14T17:29:00.630Z,2904.00
2023-03-14T17:30:00.760Z,2899.00
2023-03-14T17:43:01.222Z,2862.00
2023-03-14T17:57:01.184Z,2744.00
2023-03-14T18:00:01.189Z,2724.00
2023-03-14T18:05:01.184Z,2707.00
2023-03-14T18:12:08.206Z,2693.00
2023-03-14T18:13:01.672Z,2692.00
2023-03-14T18:14:01.194Z,2689.00
2023-03-14T18:15:00.811Z,2687.00
2023-03-14T18:16:00.711Z,2688.00
2023-03-14T18:17:00.682Z,2686.00
2023-03-14T18:18:00.685Z,2690.00
2023-03-14T18:19:01.199Z,2690.00
2023-03-14T18:20:00.705Z,2686.00
2023-03-14T18:21:00.714Z,2686.00
2023-03-14T18:22:00.750Z,2686.00
2023-03-14T18:23:00.724Z,2685.00
2023-03-14T18:24:00.724Z,2681.00
2023-03-14T18:25:00.729Z,2677.00
2023-03-14T18:26:00.733Z,2673.00
2023-03-14T18:27:00.741Z,2671.00
2023-03-14T18:28:00.742Z,2669.00
2023-03-14T18:29:00.750Z,2668.00
2023-03-14T18:30:00.758Z,2667.00
2023-03-14T18:31:00.770Z,2667.00
2023-03-14T18:32:00.892Z,2665.00
2023-03-14T18:33:00.808Z,2661.00
2023-03-14T18:34:00.788Z,2663.00
2023-03-14T18:35:00.816Z,2663.00
2023-03-14T18:36:01.762Z,2662.00
2023-03-14T18:37:00.838Z,2663.00
2023-03-14T18:38:00.831Z,2663.00
2023-03-14T18:39:00.848Z,2660.00
2023-03-14T18:40:00.890Z,2659.00
2023-03-14T18:41:00.962Z,2656.00
2023-03-14T18:42:00.895Z,2657.00
2023-03-14T18:43:00.917Z,2660.00
2023-03-14T18:44:00.923Z,2661.00
2023-03-14T18:45:01.133Z,2664.00
2023-03-14T18:46:00.951Z,2669.00
2023-03-14T18:47:01.019Z,2668.00
2023-03-14T18:48:00.986Z,2664.00
2023-03-14T18:49:00.985Z,2659.00
2023-03-14T18:50:01.129Z,2653.00
2023-03-14T18:51:01.034Z,2650.00
2023-03-14T18:52:01.037Z,2651.00
2023-03-14T18:53:01.104Z,2649.00
2023-03-14T18:54:10.291Z,2643.00
2023-03-14T18:55:02.060Z,2642.00
2023-03-14T18:56:01.033Z,2641.00
2023-03-14T18:57:01.016Z,2640.00
2023-03-14T18:58:01.010Z,2639.00
2023-03-14T18:59:00.981Z,2631.00
2023-03-14T19:00:01.114Z,2630.00
2023-03-14T19:01:01.009Z,2632.00
2023-03-14T19:04:00.886Z,2621.00
2023-03-14T19:05:00.878Z,2620.00
2023-03-14T19:06:00.835Z,2620.00
2023-03-14T19:07:00.810Z,2620.00
2023-03-14T19:08:00.841Z,2621.00
2023-03-14T19:09:00.775Z,2620.00
2023-03-14T19:10:00.754Z,2618.00
2023-03-14T19:11:00.741Z,2616.00
2023-03-14T19:12:00.751Z,2610.00
2023-03-14T19:13:00.836Z,2608.00
2023-03-14T19:14:00.773Z,2606.00
2023-03-14T19:15:01.190Z,2602.00
2023-03-14T19:16:00.911Z,2600.00
2023-03-14T19:17:00.829Z,2597.00
2023-03-14T19:18:00.823Z,2593.00
2023-03-14T19:19:00.848Z,2593.00
2023-03-14T19:20:00.880Z,2598.00
2023-03-14T19:21:00.868Z,2601.00
2023-03-14T19:22:00.903Z,2599.00
2023-03-14T19:23:00.909Z,2599.00
2023-03-14T19:24:01.044Z,2596.00
2023-03-14T19:25:01.233Z,2594.00
2023-03-14T19:26:00.963Z,2596.00
2023-03-14T19:27:00.974Z,2591.00
2023-03-14T19:28:01.000Z,2586.00
2023-03-14T19:29:01.011Z,2585.00
2023-03-14T19:30:01.134Z,2583.00
2023-03-14T19:31:01.058Z,2587.00
2023-03-14T19:32:01.150Z,2584.00
2023-03-14T19:33:01.246Z,2582.00
2023-03-14T19:34:01.138Z,2583.00
2023-03-14T19:35:01.143Z,2580.00
2023-03-14T19:36:01.222Z,2579.00
2023-03-14T19:37:01.223Z,2581.00
2023-03-14T19:38:01.190Z,2582.00
2023-03-14T19:39:01.221Z,2582.00
2023-03-14T19:40:01.343Z,2579.00
2023-03-14T19:41:01.257Z,2579.00
2023-03-14T19:42:01.270Z,2577.00
2023-03-14T19:43:01.304Z,2578.00
2023-03-14T19:44:01.310Z,2574.00
2023-03-14T19:45:01.337Z,2566.00
2023-03-14T19:46:02.410Z,2565.00
2023-03-14T19:47:01.365Z,2562.00
2023-03-14T19:48:01.384Z,2555.00
2023-03-14T19:49:01.466Z,2554.00
2023-03-14T19:50:01.433Z,2555.00
2023-03-14T19:51:01.463Z,2556.00
2023-03-14T19:52:01.458Z,2555.00
2023-03-14T19:53:03.543Z,2551.00
2023-03-14T19:54:01.434Z,2548.00
2023-03-14T19:55:01.423Z,2547.00
2023-03-14T19:56:01.400Z,2547.00
2023-03-14T19:57:01.363Z,2544.00
2023-03-14T19:58:01.352Z,2544.00
2023-03-14T19:59:01.374Z,2545.00
2023-03-14T20:00:01.736Z,2541.00
2023-03-14T20:01:01.292Z,2541.00
2023-03-14T20:02:01.467Z,2540.00
2023-03-14T20:03:01.390Z,2539.00
2023-03-14T20:04:01.186Z,2536.00
2023-03-14T20:05:01.177Z,2536.00
2023-03-14T20:06:01.207Z,2537.00
2023-03-14T20:07:01.151Z,2537.00
2023-03-14T20:08:01.108Z,2535.00
2023-03-14T20:09:01.089Z,2535.00
2023-03-14T20:10:01.078Z,2530.00
2023-03-14T20:11:01.040Z,2529.00
2023-03-14T20:12:01.742Z,2531.00
2023-03-14T20:13:04.418Z,2531.00
2023-03-14T20:14:01.974Z,2534.00
2023-03-14T20:15:01.087Z,2526.00
2023-03-14T20:16:00.929Z,2522.00
2023-03-14T20:17:00.942Z,2518.00
2023-03-14T20:18:00.884Z,2520.00
2023-03-14T20:19:00.942Z,2524.00
2023-03-14T20:20:00.845Z,2523.00
2023-03-14T20:21:00.832Z,2524.00
2023-03-14T20:22:03.903Z,2525.00
2023-03-14T20:23:00.781Z,2521.00
2023-03-14T20:24:00.758Z,2526.00
2023-03-14T20:25:00.724Z,2521.00
2023-03-14T20:26:00.704Z,2518.00
2023-03-14T20:27:00.678Z,2517.00
2023-03-14T20:28:00.642Z,2509.00
2023-03-14T20:29:01.270Z,2508.00
2023-03-14T20:33:01.259Z,2504.00
2023-03-14T21:35:00.636Z,2413.00
2023-03-14T21:36:00.700Z,2411.00
2023-03-14T21:37:00.691Z,2410.00
2023-03-14T21:38:00.763Z,2409.00
2023-03-14T21:39:00.737Z,2407.00
2023-03-14T21:40:00.763Z,2405.00
2023-03-14T21:41:00.809Z,2406.00
2023-03-14T21:42:00.837Z,2403.00
2023-03-14T21:43:00.877Z,2400.00
2023-03-14T21:44:01.772Z,2398.00
2023-03-14T21:45:01.770Z,2400.00
2023-03-14T21:46:00.974Z,2402.00
2023-03-14T21:47:02.708Z,2395.00
2023-03-14T21:48:00.990Z,2395.00
2023-03-14T21:49:00.965Z,2394.00
2023-03-14T21:50:00.946Z,2393.00
2023-03-14T21:51:00.922Z,2387.00
2023-03-14T21:52:00.899Z,2384.00
2023-03-14T21:53:00.882Z,2381.00
2023-03-14T21:54:00.866Z,2376.00
2023-03-14T21:55:00.832Z,2376.00
2023-03-14T21:56:00.821Z,2377.00
2023-03-14T21:57:00.798Z,2378.00
2023-03-14T21:58:00.781Z,2378.00
2023-03-14T21:59:00.785Z,2375.00
2023-03-14T22:00:01.075Z,2380.00
2023-03-14T22:01:00.718Z,2377.00
2023-03-14T22:02:00.812Z,2372.00
2023-03-14T22:03:13.000Z,2374.00
2023-03-14T22:04:01.661Z,2373.00
2023-03-14T22:05:00.652Z,2369.00
2023-03-14T22:07:00.633Z,2366.00
2023-03-14T22:16:01.338Z,2359.00
2023-03-14T22:20:00.648Z,2357.00
2023-03-14T22:21:00.682Z,2355.00
2023-03-14T22:22:00.705Z,2354.00
2023-03-14T22:23:00.749Z,2352.00
2023-03-14T22:24:01.290Z,2351.00
2023-03-14T22:25:00.800Z,2353.00
2023-03-14T22:26:00.834Z,2349.00
2023-03-14T22:27:00.915Z,2347.00
2023-03-14T22:28:00.904Z,2343.00
2023-03-14T22:29:00.953Z,2337.00
2023-03-14T22:30:01.204Z,2335.00
2023-03-14T22:31:03.363Z,2336.00
2023-03-14T22:32:01.208Z,2333.00
2023-03-14T22:33:01.292Z,2329.00
2023-03-14T22:34:01.384Z,2325.00
2023-03-14T22:35:01.317Z,2324.00
2023-03-14T22:36:01.399Z,2325.00
2023-03-14T22:37:02.294Z,2322.00
2023-03-14T22:38:01.445Z,2320.00
2023-03-14T22:39:01.483Z,2318.00
2023-03-14T22:40:01.610Z,2320.00
2023-03-14T22:41:01.626Z,2322.00
2023-03-14T22:42:01.574Z,2324.00
2023-03-14T22:43:01.620Z,2323.00
2023-03-14T22:44:01.641Z,2319.00
2023-03-14T22:45:01.677Z,2315.00
2023-03-14T22:46:01.804Z,2315.00
2023-03-14T22:47:01.726Z,2314.00
2023-03-14T22:48:01.768Z,2311.00
2023-03-14T22:49:01.802Z,2307.00
2023-03-14T22:50:01.858Z,2307.00
2023-03-14T22:51:01.862Z,2308.00
2023-03-14T22:52:01.909Z,2309.00
2023-03-14T23:34:03.593Z,2254.00
2023-03-14T23:48:04.174Z,2242.00
2023-03-14T23:49:04.207Z,2236.00
2023-03-14T23:50:04.247Z,2235.00
2023-03-14T23:51:04.288Z,2233.00
2023-03-14T23:52:04.331Z,2229.00
2023-03-14T23:53:04.376Z,2229.00
2023-03-14T23:54:04.434Z,2227.00
2023-03-14T23:55:04.455Z,2225.00
2023-03-14T23:56:04.492Z,2222.00
2023-03-14T23:57:04.525Z,2223.00
2023-03-14T23:58:04.580Z,2219.00
2023-03-14T23:59:04.706Z,2213.00
